Погода Ордынокна неделю

Тверская область, Россия

24 - 30 мая
  • 24мая
    Сегодня
    +7°
    +22°
    Ясно и безоблачно
    ВремяПогодаТемператураВлажностьДавлениеВетер, м/сВероятность осадков
    00:00Ясно и безоблачно+12°C54 %755 мм2.9 м/с2 %
    03:00Ясно и безоблачно+10°C61 %756 мм2.8 м/с2 %
    06:00Ясно и безоблачно+10°C62 %757 мм2.9 м/с2 %
    09:00Ясно и безоблачно+16°C45 %758 мм3.1 м/с2 %
    12:00Ясно и безоблачно+20°C31 %757 мм4.8 м/с2 %
    15:00Ясно и безоблачно+21°C28 %756 мм4.5 м/с2 %
    18:00Ясно и безоблачно+21°C29 %756 мм3.8 м/с2 %
    21:00Ясно и безоблачно+16°C45 %756 мм2.6 м/с2 %
  • 25мая
    Суббота
    +9°
    +24°
    Ясно и безоблачно
    ВремяПогодаТемператураВлажностьДавлениеВетер, м/сВероятность осадков
    00:00Ясно и безоблачно+11°C52 %756 мм2.9 м/с2 %
    03:00Ясно и безоблачно+9°C64 %756 мм2.5 м/с2 %
    06:00Ясно и безоблачно+9°C68 %756 мм2.6 м/с2 %
    09:00Ясно и безоблачно+17°C53 %755 мм1.9 м/с2 %
    12:00Ясно и безоблачно+21°C39 %755 мм2.1 м/с2 %
    15:00Ясно и безоблачно+23°C34 %754 мм2.4 м/с2 %
    18:00Ясно и безоблачно+24°C34 %753 мм2.1 м/с2 %
    21:00Ясно и безоблачно+18°C63 %752 мм2.2 м/с2 %
  • 26мая
    Воскресенье
    +12°
    +26°
    Облачно с прояснениями
    ВремяПогодаТемператураВлажностьДавлениеВетер, м/сВероятность осадков
    00:00Ясно и безоблачно+13°C77 %752 мм2.0 м/с2 %
    03:00Ясно и безоблачно+10°C86 %752 мм2.1 м/с2 %
    06:00Ясно и безоблачно+11°C79 %752 мм2.0 м/с2 %
    09:00Ясно и безоблачно+20°C56 %752 мм1.1 м/с2 %
    12:00Облачно с прояснениями+24°C37 %752 мм2.0 м/с2 %
    15:00Облачно с прояснениями+25°C33 %752 мм2.7 м/с15 %
    18:00Практически безоблачно+25°C44 %752 мм4.5 м/с27 %
    21:00Ясно и безоблачно+19°C69 %752 мм1.9 м/с15 %
  • 27мая
    Понедельник
    +11°
    +24°
    Небольшая облачность
    ВремяПогодаТемператураВлажностьДавлениеВетер, м/сВероятность осадков
    00:00Облачно с прояснениями+15°C86 %752 мм2.6 м/с2 %
    03:00Облачно с прояснениями+13°C93 %753 мм2.6 м/с2 %
    06:00Ясно и безоблачно+13°C90 %754 мм2.8 м/с2 %
    09:00Ясно и безоблачно+19°C64 %754 мм3.2 м/с2 %
    12:00Ясно и безоблачно+22°C42 %754 мм3.7 м/с3 %
    15:00Небольшая облачность+24°C34 %754 мм2.5 м/с9 %
    18:00Практически безоблачно+24°C34 %753 мм3.2 м/с12 %
    21:00Ясно и безоблачно+19°C60 %753 мм2.0 м/с3 %
  • 28мая
    Вторник
    +11°
    +24°
    Ясно и безоблачно
    ВремяПогодаТемператураВлажностьДавлениеВетер, м/сВероятность осадков
    00:00Ясно и безоблачно+15°C62 %753 мм3.0 м/с2 %
    03:00Практически безоблачно+13°C63 %754 мм2.6 м/с2 %
    06:00Ясно и безоблачно+13°C64 %754 мм2.4 м/с2 %
    09:00Ясно и безоблачно+20°C50 %754 мм2.0 м/с2 %
    12:00Ясно и безоблачно+23°C38 %754 мм2.7 м/с3 %
    15:00Ясно и безоблачно+24°C32 %753 мм2.3 м/с6 %
    18:00Ясно и безоблачно+23°C30 %752 мм2.0 м/с5 %
    21:00Ясно и безоблачно+19°C50 %752 мм2.0 м/с3 %
Мы используем cookies
Соглашаюсь